Beech Croft, New York
Current Conditions -  °F | °C
As of 2:53 AM on Monday 22 Dec 2014 (Local Time) from KFRG Reporting Station
Overcast Overcast  
Wind Chill: 32°   Ceiling: 800
Heat Index: 37°   Visibility: 10mi
Dew Point: 34°   Wind: 6mph
Humidity: 89%   Direction: 10°N
Pressure: 30.33"   Gusts: NA
Location:  40.8966°N, 73.4362°W
Report Text: KFRG 220753Z AUTO 01005KT 10SM OVC008 03/01 A3033 RMK AO2 SLP270 T00280011
Loading
Personal Weather Stations






























Interactive Weather Map New forecast layout! Learn more

10-Day Weather Forecast

Advertisements
Track Severe Weather on mobile